Ayvalik, Turkey

4:12 PM +03 on February 25, 2017 (GMT +0300)
Sugozu "ISKOLDEN" | | Change Station

Elev 112 ft 36.83 °N, 35.88 °E | Updated 2 minutes ago

Partly Cloudy
Partly Cloudy
62.4 °F
Feels Like 62.4 °F
N
5.4
Wind Variable Wind from SSW
Gusts 6.0 mph

Today
High -- | Low -- °F
--% Chance of Precip.
Yesterday
High -- | Low -- °F
Precip. -- in
Pressure 30.18 in
Visibility 6.2 miles
Clouds Scattered Clouds 3500 ft
Dew Point 52 °F
Humidity 68%
Rainfall 0.00 in
Snow Depth Not available.
7:13 AM 6:27 PM
Waning Crescent, 1% visible
METAR LTAG 251250Z 02002KT 9999 SCT035 20/06 Q1022 NOSIG
Pressure 30.18 in
Visibility 6.2 miles
Clouds Scattered Clouds 3500 ft
Dew Point 52 °F
Humidity 68%
Rainfall 0.00 in
Snow Depth Not available.
7:13 AM 6:27 PM
Waning Crescent, 1% visible
METAR LTAG 251250Z 02002KT 9999 SCT035 20/06 Q1022 NOSIG

Get Your Daily Forecast Email!

Thanks for signing up!

Be on the lookout for a verification email in your inbox.

You'll start receiving the daily forecast at 8 AM.

×

10-Day Weather Forecast

×

Almanac

Astronomy

Feb. 25, 2017 Rise Set
Actual Time
Civil Twilight
Nautical Twilight
Astronomical Twilight
Moon
Length of Visible Light
Length of Day
Tomorrow will be .
, % of the Moon is Illuminated

Today's Extremes

Country Highs Country Lows

Community

WunderPhotos

Upload Photos

1,962,540 photos uploaded!

WunderBlog® & News

Nearby

Air Quality

  Air Quality AQ Index Pollutant
Not available.

Snow Depth

Station Depth Elevation

Earthquake Activity

City Distance Mag. Time & Date
Minimum magnitude displayed is 2.5.

Coastal Water Temperatures

Place Temperature

Stations

Nearby Weather Stations

Station Location Temp. Windchill Dew Point Humidity Wind Precip. Elev Updated Type